Time;durP1;ratioP1;P1;durP2;ratioP2;P2;SDS_P1;SDS_P2;PMS_P1;PMS_P2;Temp;Humidity;BMP_temperature;BMP_pressure;BME280_temperature;BME280_humidity;BME280_pressure;Samples;Min_cycle;Max_cycle;Signal;HPM_P1;HPM_P2
2022/01/30 00:01:52;;;;;;;26.20;4.95;;;6.70;99.90;;;;;;5075552;28;20040;-89
2022/01/30 00:04:18;;;;;;;22.52;3.15;;;6.70;99.90;;;;;;5091690;28;20039;-89
2022/01/30 00:06:43;;;;;;;23.50;4.20;;;6.70;99.90;;;;;;5094091;27;20078;-88
2022/01/30 00:09:16;;;;;;;30.45;4.95;;;6.60;99.90;;;;;;5088337;28;20043;-89
2022/01/30 00:11:45;;;;;;;21.10;3.53;;;6.70;99.90;;;;;;5076896;28;20082;-88
2022/01/30 00:14:17;;;;;;;31.88;5.60;;;6.60;99.90;;;;;;5076769;28;20172;-88
2022/01/30 00:16:42;;;;;;;29.98;4.80;;;6.50;99.90;;;;;;5094257;28;20406;-89
2022/01/30 00:19:19;;;;;;;25.05;4.90;;;6.50;99.90;;;;;;5091981;28;20035;-88
2022/01/30 00:21:50;;;;;;;31.60;5.32;;;6.50;99.90;;;;;;5093767;28;20507;-88
2022/01/30 00:24:26;;;;;;;20.63;3.35;;;6.50;99.90;;;;;;5076271;28;20040;-88
2022/01/30 00:26:52;;;;;;;30.70;5.18;;;6.50;99.90;;;;;;5077432;28;20031;-88
2022/01/30 00:29:18;;;;;;;26.20;4.32;;;6.50;99.90;;;;;;5063618;28;20044;-88
2022/01/30 00:31:43;;;;;;;23.88;3.22;;;6.50;99.90;;;;;;5071242;28;20047;-88
2022/01/30 00:34:09;;;;;;;22.95;4.18;;;6.50;99.90;;;;;;5075695;28;20050;-88
2022/01/30 00:36:35;;;;;;;30.98;5.32;;;6.50;99.90;;;;;;5076659;28;20032;-89
2022/01/30 00:39:01;;;;;;;25.30;4.50;;;6.50;99.90;;;;;;5076029;28;20426;-89
2022/01/30 00:41:27;;;;;;;21.27;3.60;;;6.50;99.90;;;;;;5093218;28;20035;-88
2022/01/30 00:43:53;;;;;;;24.88;4.05;;;6.50;99.90;;;;;;5075627;28;20601;-88
2022/01/30 00:46:18;;;;;;;26.80;5.18;;;6.50;99.90;;;;;;5091459;28;20061;-87
2022/01/30 00:48:44;;;;;;;27.15;5.10;;;6.60;99.90;;;;;;5071260;28;20058;-88
2022/01/30 00:51:10;;;;;;;27.33;4.55;;;6.60;99.90;;;;;;5093603;28;20058;-88
2022/01/30 00:53:35;;;;;;;24.27;4.28;;;6.70;99.90;;;;;;5093336;28;20035;-88
2022/01/30 00:56:01;;;;;;;31.95;4.75;;;6.70;99.90;;;;;;5076706;28;20039;-87
2022/01/30 00:58:27;;;;;;;23.85;4.50;;;6.60;99.90;;;;;;5075980;28;20035;-88
2022/01/30 01:00:52;;;;;;;15.77;2.25;;;6.50;99.90;;;;;;5092462;28;20052;-88
2022/01/30 01:03:18;;;;;;;18.88;3.00;;;6.50;99.90;;;;;;5090450;28;20036;-87
2022/01/30 01:05:44;;;;;;;17.75;2.55;;;6.30;99.90;;;;;;5076161;28;20402;-87
2022/01/30 01:08:18;;;;;;;15.60;3.20;;;6.30;99.90;;;;;;5090932;28;20032;-87
2022/01/30 01:23:53;;;;;;;22.60;4.00;;;5.90;99.90;;;;;;5093449;28;20065;-88
2022/01/30 01:26:23;;;;;;;22.73;3.92;;;5.90;99.90;;;;;;5093262;28;20035;-89
2022/01/30 01:28:49;;;;;;;20.67;3.30;;;5.90;99.90;;;;;;5075669;28;20096;-88
2022/01/30 01:31:15;;;;;;;20.10;2.85;;;5.80;99.90;;;;;;5075943;28;20473;-88
2022/01/30 01:36:27;;;;;;;26.75;4.35;;;5.80;99.90;;;;;;5092585;28;20043;-87
2022/01/30 01:38:52;;;;;;;19.00;3.28;;;5.70;99.90;;;;;;5075674;28;20032;-88
2022/01/30 01:41:21;;;;;;;27.98;3.97;;;5.70;99.90;;;;;;5095172;28;20044;-89
2022/01/30 01:43:51;;;;;;;31.08;4.63;;;5.60;99.90;;;;;;5089125;28;20050;-88
2022/01/30 01:46:23;;;;;;;26.15;4.25;;;5.60;99.90;;;;;;5076110;28;20035;-88
2022/01/30 01:48:51;;;;;;;30.65;4.32;;;5.50;99.90;;;;;;5091695;28;20114;-88
2022/01/30 01:51:23;;;;;;;29.05;4.38;;;5.60;99.90;;;;;;5092318;28;20480;-88
2022/01/30 01:53:51;;;;;;;26.17;4.15;;;5.60;99.90;;;;;;5074606;28;20035;-88
2022/01/30 01:56:18;;;;;;;27.70;5.18;;;5.60;99.90;;;;;;5075573;28;20031;-88
2022/01/30 01:58:44;;;;;;;33.05;4.90;;;5.70;99.90;;;;;;5075516;28;20039;-89
2022/01/30 02:01:10;;;;;;;30.58;5.35;;;5.70;99.90;;;;;;5074987;28;20050;-87
2022/01/30 02:03:37;;;;;;;33.30;5.72;;;5.80;99.90;;;;;;5070517;28;20024;-89
2022/01/30 02:06:05;;;;;;;26.05;4.05;;;5.80;99.90;;;;;;5073830;27;20046;-88
2022/01/30 02:24:36;;;;;;;25.00;3.58;;;5.80;99.90;;;;;;5089481;28;20549;-87
2022/01/30 02:27:03;;;;;;;31.15;4.53;;;5.80;99.90;;;;;;5075045;28;20074;-87
2022/01/30 02:29:29;;;;;;;26.52;4.40;;;5.80;99.90;;;;;;5074731;28;20031;-88
2022/01/30 02:31:57;;;;;;;23.85;4.80;;;5.80;99.90;;;;;;5075352;28;20246;-89
2022/01/30 02:34:27;;;;;;;25.55;4.85;;;5.80;99.90;;;;;;5090950;28;20114;-88
2022/01/30 02:36:54;;;;;;;27.02;4.50;;;5.80;99.90;;;;;;5073553;28;20169;-89
2022/01/30 02:39:20;;;;;;;29.00;5.45;;;5.90;99.90;;;;;;5073714;28;20480;-88
2022/01/30 02:41:46;;;;;;;38.70;5.18;;;5.90;99.90;;;;;;5093100;28;20120;-88
2022/01/30 02:44:19;;;;;;;35.42;5.07;;;5.90;99.90;;;;;;5074383;28;20495;-89
2022/01/30 02:46:48;;;;;;;31.05;5.32;;;5.90;99.90;;;;;;5063431;28;20123;-88
2022/01/30 02:50:10;;;;;;;26.00;3.75;;;5.80;99.90;;;;;;5073422;28;20050;-88
2022/01/30 02:52:06;;;;;;;25.00;4.13;;;5.70;99.90;;;;;;5076545;28;20043;-88
2022/01/30 02:54:32;;;;;;;32.75;4.95;;;5.60;99.90;;;;;;5073889;28;20047;-88
2022/01/30 02:56:58;;;;;;;33.30;5.25;;;5.60;99.90;;;;;;5067481;28;20039;-88
2022/01/30 02:59:24;;;;;;;31.70;5.63;;;5.60;99.90;;;;;;5074177;28;20061;-88
2022/01/30 03:01:50;;;;;;;31.65;5.07;;;5.60;99.90;;;;;;5074328;28;20040;-88
2022/01/30 03:04:17;;;;;;;33.42;5.78;;;5.60;99.90;;;;;;5090049;28;20111;-88
2022/01/30 03:06:44;;;;;;;36.05;6.72;;;5.70;99.90;;;;;;5088847;28;20502;-88
2022/01/30 03:09:10;;;;;;;25.80;4.53;;;5.70;99.90;;;;;;5073757;28;20035;-89
2022/01/30 03:11:36;;;;;;;20.77;4.25;;;5.60;99.90;;;;;;5055457;28;20060;-89
2022/01/30 03:14:03;;;;;;;34.63;4.30;;;5.60;99.90;;;;;;5074280;28;20040;-89
2022/01/30 03:16:29;;;;;;;26.40;4.13;;;5.60;99.90;;;;;;5055563;28;20044;-89
2022/01/30 03:18:55;;;;;;;28.88;6.22;;;5.60;99.90;;;;;;5088171;28;20085;-88
2022/01/30 03:21:21;;;;;;;26.85;4.32;;;5.50;99.90;;;;;;5071516;28;20045;-89
2022/01/30 03:23:47;;;;;;;25.00;4.30;;;5.50;99.90;;;;;;5073976;28;20039;-89
2022/01/30 03:26:14;;;;;;;30.65;4.13;;;5.60;99.90;;;;;;5070666;28;20596;-88
2022/01/30 03:28:42;;;;;;;34.05;5.40;;;5.60;99.90;;;;;;5069622;28;20084;-88
2022/01/30 03:31:10;;;;;;;23.20;4.03;;;5.60;99.90;;;;;;5065361;28;20032;-89
2022/01/30 03:33:37;;;;;;;30.52;5.78;;;5.60;99.90;;;;;;5073021;28;20093;-89
2022/01/30 03:36:03;;;;;;;39.30;5.57;;;5.60;99.90;;;;;;5072981;28;20414;-89
2022/01/30 03:38:29;;;;;;;25.10;4.57;;;5.60;99.90;;;;;;5091190;28;20043;-89
2022/01/30 03:40:55;;;;;;;31.83;5.78;;;5.60;99.90;;;;;;5073882;28;20586;-89
2022/01/30 03:43:20;;;;;;;28.13;4.53;;;5.60;99.90;;;;;;5073432;28;20028;-89
2022/01/30 03:45:47;;;;;;;33.13;5.00;;;5.70;99.90;;;;;;5074129;28;20039;-89
2022/01/30 03:48:14;;;;;;;31.23;4.63;;;5.70;99.90;;;;;;5066612;28;20042;-88
2022/01/30 03:50:41;;;;;;;35.58;5.20;;;5.70;99.90;;;;;;5090760;28;20189;-89
2022/01/30 03:53:07;;;;;;;34.67;4.93;;;5.80;99.90;;;;;;5061973;28;20058;-89
2022/01/30 03:55:33;;;;;;;42.00;5.35;;;5.80;99.90;;;;;;5090350;28;20032;-88
2022/01/30 03:57:59;;;;;;;37.85;5.57;;;5.80;99.90;;;;;;5073048;28;20032;-89
2022/01/30 04:00:25;;;;;;;43.28;4.95;;;5.80;99.90;;;;;;5072684;28;20466;-89
2022/01/30 04:02:51;;;;;;;35.17;6.88;;;5.90;99.90;;;;;;5072338;28;20139;-88
2022/01/30 04:05:17;;;;;;;38.28;6.70;;;5.90;99.90;;;;;;5073726;28;20027;-89
2022/01/30 04:07:45;;;;;;;29.08;5.20;;;5.90;99.90;;;;;;5072763;28;20031;-89
2022/01/30 04:10:11;;;;;;;27.38;5.10;;;6.00;99.90;;;;;;5054628;28;20165;-89
2022/01/30 04:12:37;;;;;;;39.30;5.85;;;6.00;99.90;;;;;;5084884;28;20098;-88
2022/01/30 04:15:03;;;;;;;36.28;6.05;;;6.00;99.90;;;;;;5086696;28;20044;-89
2022/01/30 04:17:29;;;;;;;29.17;5.25;;;6.00;99.90;;;;;;5070724;28;20067;-88
2022/01/30 04:19:55;;;;;;;24.05;4.85;;;6.00;99.90;;;;;;5066845;28;20407;-88
2022/01/30 04:22:20;;;;;;;41.85;5.70;;;6.00;99.90;;;;;;5070274;28;20620;-87
2022/01/30 04:24:46;;;;;;;36.95;6.13;;;6.00;99.90;;;;;;5086092;28;20496;-88
2022/01/30 04:27:11;;;;;;;41.25;5.63;;;6.00;99.90;;;;;;5071677;28;20085;-89
2022/01/30 04:29:37;;;;;;;36.05;5.80;;;6.10;99.90;;;;;;5067785;28;20398;-89
2022/01/30 04:32:03;;;;;;;31.77;4.90;;;6.10;99.90;;;;;;5094134;28;20054;-88
2022/01/30 04:34:31;;;;;;;33.38;5.60;;;6.10;99.90;;;;;;5090573;28;20040;-89
2022/01/30 04:37:01;;;;;;;36.58;6.03;;;6.10;99.90;;;;;;5073563;28;20085;-89
2022/01/30 04:53:05;;;;;;;31.77;6.38;;;5.90;99.90;;;;;;5093393;28;20079;-89
2022/01/30 05:03:34;;;;;;;33.03;5.40;;;5.80;99.90;;;;;;5092656;28;20082;-88
2022/01/30 05:06:09;;;;;;;38.28;6.38;;;5.80;99.90;;;;;;5070023;28;20035;-88
2022/01/30 05:08:35;;;;;;;;;;;5.70;99.90;;;;;;5076750;28;20039;-89
2022/01/30 05:11:07;;;;;;;34.20;6.50;;;5.70;99.90;;;;;;5072828;28;19923;-89
2022/01/30 05:13:35;;;;;;;42.60;7.22;;;5.70;99.90;;;;;;5068556;28;20126;-89
2022/01/30 05:16:01;;;;;;;44.85;7.18;;;5.60;99.90;;;;;;5056980;28;20048;-88
2022/01/30 05:18:29;;;;;;;38.83;6.82;;;5.60;99.90;;;;;;5053756;28;20064;-88
2022/01/30 05:20:55;;;;;;;46.00;7.20;;;5.60;99.90;;;;;;5054977;28;20048;-89
2022/01/30 05:23:21;;;;;;;40.08;8.13;;;5.50;99.90;;;;;;5073187;28;20048;-88
2022/01/30 05:25:49;;;;;;;45.92;7.28;;;5.50;99.90;;;;;;5043217;28;20020;-89
2022/01/30 05:28:16;;;;;;;40.88;7.93;;;5.60;99.90;;;;;;5052747;28;20041;-88
2022/01/30 05:30:43;;;;;;;46.75;6.53;;;5.60;99.90;;;;;;5052715;28;20062;-87
2022/01/30 05:33:08;;;;;;;41.25;8.18;;;5.60;99.90;;;;;;5035507;28;20040;-88
2022/01/30 05:35:34;;;;;;;51.72;7.95;;;5.50;99.90;;;;;;5050762;28;20173;-88
2022/01/30 05:38:02;;;;;;;36.17;6.57;;;5.50;99.90;;;;;;5050222;28;20102;-89
2022/01/30 05:40:28;;;;;;;25.77;5.50;;;5.50;99.90;;;;;;5049296;28;20087;-88
2022/01/30 05:42:54;;;;;;;24.67;5.47;;;5.50;99.90;;;;;;5042044;28;20036;-88
2022/01/30 05:48:06;;;;;;;31.45;5.38;;;5.40;99.90;;;;;;5064020;28;20518;-89
2022/01/30 05:50:32;;;;;;;36.38;6.13;;;5.40;99.90;;;;;;5040013;28;20039;-87
2022/01/30 05:52:58;;;;;;;31.70;5.55;;;5.40;99.90;;;;;;5043551;28;20036;-89
2022/01/30 05:55:24;;;;;;;34.00;6.05;;;5.40;99.90;;;;;;5046413;28;20411;-89
2022/01/30 05:57:49;;;;;;;34.10;6.03;;;5.40;99.90;;;;;;5051086;28;20036;-88
2022/01/30 06:00:16;;;;;;;34.55;6.65;;;5.30;99.90;;;;;;5033752;28;20460;-88
2022/01/30 06:02:42;;;;;;;35.70;7.32;;;5.40;99.90;;;;;;5048157;28;20465;-88
2022/01/30 06:05:09;;;;;;;45.40;7.30;;;5.40;99.90;;;;;;5041821;28;20127;-89
2022/01/30 06:07:37;;;;;;;35.55;7.00;;;5.40;99.90;;;;;;5043390;28;20056;-88
2022/01/30 06:10:03;;;;;;;40.25;6.70;;;5.40;99.90;;;;;;5038905;28;20111;-89
2022/01/30 06:12:29;;;;;;;46.58;7.18;;;5.40;99.90;;;;;;5036481;28;20075;-88
2022/01/30 06:14:55;;;;;;;49.85;9.38;;;5.50;99.90;;;;;;5034200;28;20049;-89
2022/01/30 06:17:21;;;;;;;60.80;9.02;;;5.60;99.90;;;;;;5048952;28;20439;-89
2022/01/30 06:19:47;;;;;;;45.88;7.05;;;5.60;99.90;;;;;;5051031;28;20101;-89
2022/01/30 06:22:13;;;;;;;53.03;7.93;;;5.60;99.90;;;;;;5029458;28;20119;-88
2022/01/30 06:24:38;;;;;;;45.95;8.30;;;5.70;99.90;;;;;;5051890;28;20037;-89
2022/01/30 06:27:04;;;;;;;35.75;6.63;;;5.70;99.90;;;;;;5051377;28;20044;-88
2022/01/30 06:29:30;;;;;;;41.53;7.35;;;5.70;99.90;;;;;;5049816;28;20539;-88
2022/01/30 06:31:55;;;;;;;37.72;6.93;;;5.70;99.90;;;;;;5052781;28;20047;-89
2022/01/30 06:34:22;;;;;;;46.42;6.38;;;5.80;99.90;;;;;;5037204;28;20138;-88
2022/01/30 06:36:48;;;;;;;58.58;7.20;;;5.80;99.90;;;;;;5032315;28;20602;-89
2022/01/30 06:39:14;;;;;;;37.05;6.43;;;5.80;99.90;;;;;;5028034;28;20071;-88
2022/01/30 06:41:39;;;;;;;44.08;8.18;;;5.80;99.90;;;;;;5035319;28;20551;-88
2022/01/30 06:44:07;;;;;;;41.75;6.18;;;5.80;99.90;;;;;;5031456;28;20483;-88
2022/01/30 06:46:32;;;;;;;41.33;7.43;;;5.80;99.90;;;;;;5038692;28;20041;-88
2022/01/30 06:48:58;;;;;;;36.10;7.55;;;5.80;99.90;;;;;;5023676;28;20040;-89
2022/01/30 06:51:24;;;;;;;41.25;7.43;;;5.80;99.90;;;;;;5043793;28;20040;-89
2022/01/30 06:53:49;;;;;;;36.95;7.40;;;5.70;99.90;;;;;;5053424;28;20047;-88
2022/01/30 06:56:15;;;;;;;46.03;7.15;;;5.70;99.90;;;;;;5035146;28;20487;-88
2022/01/30 06:58:40;;;;;;;46.63;8.00;;;5.70;99.90;;;;;;5034188;28;20075;-89
2022/01/30 07:01:06;;;;;;;54.28;9.07;;;5.70;99.90;;;;;;5091904;28;20039;-87
2022/01/30 07:03:32;;;;;;;48.55;8.27;;;5.60;99.90;;;;;;5047836;28;20036;-89
2022/01/30 07:05:57;;;;;;;42.42;6.75;;;5.70;99.90;;;;;;5050114;28;20036;-89
2022/01/30 07:08:23;;;;;;;46.28;6.40;;;5.70;99.90;;;;;;5045286;28;20037;-88
2022/01/30 07:10:48;;;;;;;45.40;9.13;;;5.70;99.90;;;;;;5057094;28;20037;-88
2022/01/30 07:13:14;;;;;;;51.70;10.52;;;5.70;99.90;;;;;;5071624;28;20051;-88
2022/01/30 07:15:41;;;;;;;38.42;7.07;;;5.70;99.90;;;;;;5063186;28;20046;-89
2022/01/30 07:18:07;;;;;;;41.45;8.00;;;5.80;99.90;;;;;;5080447;28;20090;-88
2022/01/30 07:20:33;;;;;;;41.17;6.90;;;5.80;99.90;;;;;;5063750;28;20031;-89
2022/01/30 07:22:59;;;;;;;43.67;6.70;;;5.90;99.30;;;;;;5059151;28;20487;-88
2022/01/30 07:25:24;;;;;;;43.33;6.72;;;5.90;98.70;;;;;;5070867;28;20101;-88
2022/01/30 07:27:50;;;;;;;47.60;7.18;;;5.90;97.70;;;;;;5052170;28;20040;-88
2022/01/30 07:30:16;;;;;;;39.65;8.40;;;5.90;97.20;;;;;;5056569;28;20036;-89
2022/01/30 07:32:41;;;;;;;44.97;7.80;;;6.00;96.60;;;;;;5053349;28;20063;-88
2022/01/30 07:35:07;;;;;;;46.63;7.40;;;6.00;95.50;;;;;;5069230;28;20122;-88
2022/01/30 07:37:34;;;;;;;50.80;8.07;;;6.00;95.20;;;;;;5049009;28;20363;-88
2022/01/30 07:40:01;;;;;;;39.22;6.60;;;6.00;94.00;;;;;;5050272;28;20046;-83
2022/01/30 07:42:27;;;;;;;45.38;7.30;;;6.00;94.30;;;;;;5060594;28;20491;-87
2022/01/30 07:44:56;;;;;;;41.63;7.40;;;6.00;94.20;;;;;;5057452;28;20039;-82
2022/01/30 07:47:22;;;;;;;35.15;6.85;;;6.00;94.30;;;;;;5062283;28;20058;-88
2022/01/30 07:49:51;;;;;;;48.97;9.15;;;6.00;95.10;;;;;;5058532;28;20043;-88
2022/01/30 07:52:20;;;;;;;46.95;8.15;;;6.00;95.10;;;;;;5052779;28;20466;-88
2022/01/30 07:54:46;;;;;;;42.88;7.43;;;6.00;95.50;;;;;;5066012;28;20043;-88
2022/01/30 07:57:12;;;;;;;53.03;9.20;;;6.00;95.60;;;;;;5053178;28;20036;-89
2022/01/30 07:59:38;;;;;;;44.53;8.18;;;6.00;96.10;;;;;;5043470;28;20055;-90
2022/01/30 08:02:04;;;;;;;43.38;7.07;;;6.00;94.70;;;;;;5043553;28;20500;-90
2022/01/30 08:04:29;;;;;;;42.00;6.85;;;6.00;95.10;;;;;;5064543;28;20400;-90
2022/01/30 08:06:55;;;;;;;40.42;7.35;;;6.00;94.40;;;;;;5053956;28;20040;-89
2022/01/30 08:09:21;;;;;;;36.97;6.80;;;6.00;93.70;;;;;;5065560;28;20039;-89
2022/01/30 08:11:47;;;;;;;30.50;6.15;;;6.00;92.20;;;;;;5041167;28;20056;-88
2022/01/30 08:14:12;;;;;;;35.03;7.10;;;6.00;92.10;;;;;;5051142;28;20531;-88
2022/01/30 08:16:39;;;;;;;37.67;6.57;;;6.00;90.70;;;;;;5043673;28;20074;-88
2022/01/30 08:19:05;;;;;;;38.15;6.45;;;6.00;88.80;;;;;;5033223;28;20105;-88
2022/01/30 08:21:31;;;;;;;32.10;6.45;;;6.00;88.60;;;;;;5058812;28;20064;-88
2022/01/30 08:23:57;;;;;;;36.97;6.70;;;6.00;85.90;;;;;;5051258;28;20448;-88
2022/01/30 08:26:22;;;;;;;46.00;7.30;;;6.00;85.40;;;;;;5035984;28;20075;-88
2022/01/30 08:28:48;;;;;;;34.58;5.30;;;6.00;84.60;;;;;;5045969;28;20048;-88
2022/01/30 08:31:14;;;;;;;36.58;5.68;;;6.00;84.10;;;;;;5060818;28;20032;-88
2022/01/30 08:33:40;;;;;;;38.83;7.03;;;6.00;83.40;;;;;;5034655;28;20029;-89
2022/01/30 08:36:05;;;;;;;33.83;5.40;;;6.00;81.40;;;;;;5051742;28;20668;-89
2022/01/30 08:38:31;;;;;;;33.55;5.40;;;6.00;80.70;;;;;;5035158;28;20438;-88
2022/01/30 08:40:57;;;;;;;35.60;6.10;;;6.00;80.30;;;;;;5047514;28;20079;-85
2022/01/30 08:43:22;;;;;;;38.13;6.32;;;6.00;78.40;;;;;;5038189;28;20491;-85
2022/01/30 08:45:52;;;;;;;38.50;7.15;;;6.00;78.20;;;;;;5050298;28;20150;-88
2022/01/30 08:48:19;;;;;;;47.75;8.15;;;6.00;78.30;;;;;;5034568;28;20091;-88
2022/01/30 08:50:45;;;;;;;36.95;5.90;;;6.00;79.60;;;;;;5032831;28;20036;-88
2022/01/30 08:53:11;;;;;;;37.33;6.85;;;6.00;78.80;;;;;;5035905;28;20040;-87
2022/01/30 08:55:37;;;;;;;39.30;6.07;;;6.00;79.50;;;;;;5049403;28;20059;-87
2022/01/30 08:58:09;;;;;;;41.20;8.13;;;6.00;80.60;;;;;;5051994;28;20424;-87
2022/01/30 09:00:40;;;;;;;35.97;5.57;;;6.00;80.40;;;;;;5042135;28;20074;-87
2022/01/30 09:03:05;;;;;;;44.95;7.07;;;6.00;78.90;;;;;;5032706;28;20029;-89
2022/01/30 09:05:32;;;;;;;34.92;6.80;;;6.00;80.50;;;;;;5049790;28;20934;-88
2022/01/30 09:07:59;;;;;;;32.47;6.43;;;6.00;81.40;;;;;;5043830;28;20115;-89
2022/01/30 09:10:25;;;;;;;33.55;6.90;;;6.00;82.10;;;;;;5034668;28;20044;-88
2022/01/30 09:12:50;;;;;;;37.35;6.55;;;6.00;82.40;;;;;;5069651;28;20043;-88
2022/01/30 09:15:17;;;;;;;34.97;6.63;;;6.00;82.90;;;;;;5092192;28;20043;-88
2022/01/30 09:17:44;;;;;;;51.10;7.65;;;6.10;83.00;;;;;;5073863;28;20040;-88
2022/01/30 09:20:11;;;;;;;38.63;7.07;;;6.10;83.80;;;;;;5072363;28;20047;-87
2022/01/30 09:22:37;;;;;;;40.60;7.60;;;6.10;82.00;;;;;;5074798;28;20326;-87
2022/01/30 09:25:04;;;;;;;43.58;8.48;;;6.10;82.40;;;;;;5066502;28;20084;-89
2022/01/30 09:27:30;;;;;;;38.97;7.20;;;6.10;81.70;;;;;;5069826;28;20114;-88
2022/01/30 09:29:56;;;;;;;34.83;7.32;;;6.10;81.90;;;;;;5074680;27;20637;-87
2022/01/30 09:32:21;;;;;;;36.22;6.63;;;6.10;82.80;;;;;;5092484;28;20273;-87
2022/01/30 09:34:47;;;;;;;44.30;7.93;;;6.00;83.20;;;;;;5073738;27;20047;-87
2022/01/30 09:37:13;;;;;;;37.83;7.03;;;6.00;84.30;;;;;;5075267;27;20051;-87
2022/01/30 09:39:39;;;;;;;38.30;7.78;;;6.10;85.60;;;;;;5074975;28;20381;-88
2022/01/30 09:42:05;;;;;;;34.15;7.22;;;6.10;86.50;;;;;;5074764;28;20034;-89
2022/01/30 09:44:36;;;;;;;46.05;7.32;;;6.20;85.20;;;;;;5092131;28;20067;-88
2022/01/30 09:47:02;;;;;;;36.08;6.35;;;6.20;84.80;;;;;;5075550;28;20100;-88
2022/01/30 09:49:29;;;;;;;38.05;7.28;;;6.20;84.50;;;;;;5072348;28;20085;-87
2022/01/30 09:51:55;;;;;;;38.00;7.40;;;6.10;84.90;;;;;;5085678;27;20132;-87
2022/01/30 09:54:22;;;;;;;35.50;7.50;;;6.10;85.20;;;;;;5075320;28;20053;-89
2022/01/30 09:56:48;;;;;;;34.78;5.75;;;6.20;84.80;;;;;;5084080;28;20529;-87
2022/01/30 09:59:14;;;;;;;49.53;8.95;;;6.30;85.40;;;;;;5083540;27;20039;-87
2022/01/30 10:01:39;;;;;;;44.58;7.68;;;6.30;85.90;;;;;;5069950;28;20050;-88
2022/01/30 10:04:06;;;;;;;40.08;7.45;;;6.30;84.90;;;;;;5087454;28;20071;-88
2022/01/30 10:06:55;;;;;;;43.75;7.28;;;6.30;85.40;;;;;;5073572;28;20557;-85
2022/01/30 10:09:30;;;;;;;41.67;7.03;;;6.30;84.70;;;;;;5090945;28;20035;-87
2022/01/30 10:12:14;;;;;;;39.03;7.67;;;6.20;85.80;;;;;;5069869;27;20097;-89
2022/01/30 10:15:07;;;;;;;52.28;8.73;;;6.20;85.20;;;;;;5090898;28;20043;-88
2022/01/30 10:17:35;;;;;;;48.80;8.25;;;6.20;86.40;;;;;;5102584;27;20039;-86
2022/01/30 10:20:03;;;;;;;42.47;6.90;;;6.20;88.10;;;;;;5079059;28;20564;-88
2022/01/30 10:22:29;;;;;;;38.80;6.60;;;6.30;84.40;;;;;;5072259;28;20044;-87
2022/01/30 10:24:54;;;;;;;39.35;6.03;;;6.30;84.00;;;;;;5088285;28;20042;-87
2022/01/30 10:27:28;;;;;;;33.28;6.70;;;6.30;82.60;;;;;;5108517;27;20436;-88
2022/01/30 10:30:04;;;;;;;39.60;6.50;;;6.30;81.40;;;;;;5087252;28;20035;-87
2022/01/30 10:32:30;;;;;;;38.85;5.95;;;6.40;80.00;;;;;;5098087;28;20047;-88
2022/01/30 10:34:59;;;;;;;34.90;6.10;;;6.40;78.90;;;;;;5070997;28;20149;-88
2022/01/30 10:37:25;;;;;;;30.65;6.03;;;6.40;78.50;;;;;;5063519;28;20093;-87
2022/01/30 10:40:03;;;;;;;35.40;6.60;;;6.40;77.80;;;;;;5091253;28;20491;-88
2022/01/30 10:42:34;;;;;;;36.38;6.72;;;6.50;77.10;;;;;;5072717;27;20044;-88
2022/01/30 10:45:00;;;;;;;41.72;6.60;;;6.50;77.50;;;;;;5067306;28;20023;-87
2022/01/30 10:47:30;;;;;;;36.40;6.07;;;6.60;77.20;;;;;;5069565;28;20045;-87
2022/01/30 10:49:57;;;;;;;31.00;5.68;;;6.70;77.90;;;;;;5089920;27;20051;-87
2022/01/30 10:52:23;;;;;;;36.58;6.15;;;6.70;76.50;;;;;;5088177;28;20043;-88
2022/01/30 10:54:50;;;;;;;35.33;7.38;;;6.80;76.40;;;;;;5065679;28;20096;-87
2022/01/30 10:57:16;;;;;;;42.75;7.10;;;6.80;77.70;;;;;;5071295;28;20039;-88
2022/01/30 10:59:43;;;;;;;44.80;8.30;;;6.90;77.70;;;;;;5087109;28;20039;-88
2022/01/30 11:02:23;;;;;;;53.85;7.32;;;6.80;78.20;;;;;;5086730;28;20043;-87
2022/01/30 11:04:50;;;;;;;40.08;7.35;;;6.80;78.40;;;;;;5072459;28;20040;-87
2022/01/30 11:07:19;;;;;;;59.28;10.55;;;6.80;79.00;;;;;;5071359;28;20756;-87
2022/01/30 11:09:58;;;;;;;28.25;5.97;;;6.70;79.80;;;;;;5102040;28;20403;-86
2022/01/30 11:13:14;;;;;;;34.20;7.43;;;6.60;80.20;;;;;;5099679;28;20059;-88
2022/01/30 11:17:53;;;;;;;42.97;6.60;;;6.70;79.80;;;;;;5079867;28;20058;-87
2022/01/30 11:20:20;;;;;;;38.65;6.85;;;6.60;79.20;;;;;;5064703;28;20031;-87
2022/01/30 11:22:47;;;;;;;34.78;5.85;;;6.60;79.10;;;;;;5084187;28;20507;-88
2022/01/30 11:25:15;;;;;;;33.45;6.45;;;6.60;77.90;;;;;;5067611;28;20042;-88
2022/01/30 11:27:43;;;;;;;44.20;6.88;;;6.60;78.20;;;;;;5065581;28;20042;-88
2022/01/30 11:30:10;;;;;;;42.38;7.03;;;6.60;77.90;;;;;;5083244;28;20066;-87
2022/01/30 11:32:36;;;;;;;32.72;6.18;;;6.60;77.30;;;;;;5068608;28;20048;-89
2022/01/30 11:35:03;;;;;;;40.00;5.72;;;6.70;77.20;;;;;;5085189;28;20572;-88
2022/01/30 11:37:32;;;;;;;33.67;5.80;;;6.60;76.00;;;;;;5082460;28;20039;-88
2022/01/30 11:39:58;;;;;;;34.70;5.93;;;6.70;75.40;;;;;;5070586;28;20043;-82
2022/01/30 11:42:27;;;;;;;44.72;6.75;;;6.70;75.60;;;;;;5087681;28;20043;-90
2022/01/30 11:45:08;;;;;;;36.95;6.18;;;6.70;75.80;;;;;;5089228;28;20031;-88
2022/01/30 11:47:46;;;;;;;30.40;6.45;;;6.80;74.10;;;;;;5068072;28;20040;-88
2022/01/30 11:50:12;;;;;;;33.78;5.72;;;6.80;73.90;;;;;;5083556;28;20036;-87
2022/01/30 11:53:03;;;;;;;37.67;5.82;;;6.90;73.70;;;;;;5087825;28;20086;-88
2022/01/30 11:55:57;;;;;;;38.70;5.32;;;6.90;73.00;;;;;;5086083;28;20506;-89
2022/01/30 11:58:41;;;;;;;35.00;5.40;;;6.90;71.40;;;;;;5085968;28;20790;-87
2022/01/30 12:01:27;;;;;;;29.83;5.40;;;6.90;71.80;;;;;;5067426;28;20377;-88
2022/01/30 12:03:54;;;;;;;42.63;6.63;;;6.80;71.60;;;;;;5069695;28;20035;-89
2022/01/30 12:06:19;;;;;;;31.65;5.05;;;6.80;73.20;;;;;;5067473;28;20038;-87
2022/01/30 12:08:54;;;;;;;36.28;6.00;;;6.70;73.20;;;;;;5070936;28;20406;-89
2022/01/30 12:11:36;;;;;;;28.73;4.68;;;6.70;72.50;;;;;;5070394;28;20047;-89
2022/01/30 12:14:06;;;;;;;35.20;6.03;;;6.70;72.40;;;;;;5072069;28;20035;-88
2022/01/30 12:16:45;;;;;;;28.42;6.88;;;6.70;73.80;;;;;;5079447;28;20039;-86
2022/01/30 12:19:13;;;;;;;44.05;6.50;;;6.80;72.80;;;;;;5081968;28;20050;-88
2022/01/30 12:21:39;;;;;;;39.90;6.45;;;6.80;73.90;;;;;;5070107;28;20078;-89
2022/01/30 12:24:28;;;;;;;37.78;6.45;;;6.80;74.30;;;;;;5065330;28;20066;-86
2022/01/30 12:27:00;;;;;;;32.50;5.25;;;6.80;75.10;;;;;;5094406;28;20043;-86
2022/01/30 12:29:43;;;;;;;29.80;5.75;;;6.90;75.20;;;;;;5083808;28;20063;-86
2022/01/30 12:32:24;;;;;;;28.25;5.53;;;6.90;73.90;;;;;;5070212;28;20269;-87
2022/01/30 12:34:56;;;;;;;37.35;5.47;;;7.00;73.90;;;;;;5090704;28;20507;-86
2022/01/30 12:37:30;;;;;;;43.97;6.78;;;6.90;75.10;;;;;;5090675;28;20069;-87
2022/01/30 12:39:59;;;;;;;37.75;6.65;;;6.90;73.40;;;;;;5066676;28;20036;-87
2022/01/30 12:42:26;;;;;;;38.70;6.75;;;6.80;73.70;;;;;;5086954;28;20398;-87
2022/01/30 12:44:57;;;;;;;38.00;5.75;;;6.80;74.50;;;;;;5071344;28;20556;-87
2022/01/30 12:47:23;;;;;;;27.58;5.30;;;6.80;75.50;;;;;;5071550;28;20059;-87
2022/01/30 12:49:52;;;;;;;30.65;5.22;;;6.80;76.30;;;;;;5071674;28;20494;-87
2022/01/30 12:52:31;;;;;;;40.25;5.47;;;6.80;76.10;;;;;;5068913;28;20050;-88
2022/01/30 12:55:00;;;;;;;37.35;6.18;;;6.90;76.90;;;;;;5072969;27;20046;-87
2022/01/30 12:57:26;;;;;;;31.63;5.22;;;6.90;77.00;;;;;;5079929;27;20376;-86
2022/01/30 12:59:56;;;;;;;28.70;5.35;;;6.90;76.50;;;;;;5074513;28;20036;-86
2022/01/30 13:02:22;;;;;;;38.47;6.88;;;7.00;77.60;;;;;;5075365;28;20040;-87
2022/01/30 13:05:01;;;;;;;34.38;4.97;;;6.90;77.00;;;;;;5071455;27;20039;-87
2022/01/30 13:07:27;;;;;;;32.35;6.30;;;6.90;76.30;;;;;;5072643;28;20036;-87
2022/01/30 13:10:13;;;;;;;33.60;6.25;;;6.90;77.00;;;;;;5087580;28;20039;-87
2022/01/30 13:12:42;;;;;;;33.72;6.35;;;7.00;77.60;;;;;;5084580;27;20093;-87
2022/01/30 13:15:10;;;;;;;38.33;7.57;;;7.10;78.40;;;;;;5068310;27;20046;-83
2022/01/30 13:17:36;;;;;;;29.77;6.68;;;7.10;78.80;;;;;;5087992;28;20594;-86
2022/01/30 13:20:04;;;;;;;35.65;6.53;;;7.10;77.90;;;;;;5080799;28;20044;-86
2022/01/30 13:22:34;;;;;;;36.50;6.60;;;7.10;78.00;;;;;;5076533;28;20122;-86
2022/01/30 13:25:05;;;;;;;31.45;7.60;;;7.10;77.50;;;;;;5066993;28;20039;-86
2022/01/30 13:27:31;;;;;;;29.80;6.13;;;7.00;77.40;;;;;;5082485;28;20107;-85
2022/01/30 13:29:57;;;;;;;35.00;7.07;;;6.90;76.50;;;;;;5084448;28;20111;-86
2022/01/30 13:32:25;;;;;;;36.90;5.50;;;6.90;76.40;;;;;;5088693;28;20051;-87
2022/01/30 13:34:53;;;;;;;27.13;5.22;;;6.80;76.50;;;;;;5087739;28;20028;-86
2022/01/30 13:37:20;;;;;;;42.58;6.10;;;6.70;75.50;;;;;;5101987;28;20096;-87
2022/01/30 13:40:00;;;;;;;30.85;5.93;;;6.70;75.70;;;;;;5089082;28;20461;-86
2022/01/30 13:48:11;;;;;;;29.95;5.25;;;6.70;71.40;;;;;;5087688;28;20571;-87
2022/01/30 13:50:44;;;;;;;24.80;4.67;;;6.70;71.40;;;;;;5072348;28;20052;-85
2022/01/30 13:53:18;;;;;;;29.42;4.97;;;6.70;71.30;;;;;;5090018;27;20054;-85
2022/01/30 13:56:01;;;;;;;31.70;5.40;;;6.70;71.20;;;;;;5071836;28;20418;-85
2022/01/30 13:58:48;;;;;;;25.98;5.03;;;6.70;70.80;;;;;;5102792;28;20039;-83